Flight Track Log - Related Links

Times and Time Zones

All times are in EDT time to prevent confusion due to time zone crossing. See the VOZ989 flight status page for this flight to view local times or setup timezone preferences in your user account.

Time Position Orientation Groundspeed Altitude Reporting Facility
EDT Latitude Longitude Course Direction KTS MPH feet Rate Location/Type
Fri 06:06:37 AM -33.9400 151.1780 168° South 15 17  Level FlightAware ADS-B
Fri 06:07:02 AM -33.9420 151.1790 157° South 16 18 19 Level FlightAware ADS-B
Fri 06:07:27 AM -33.9440 151.1790 180° South 12 14 20 Level FlightAware ADS-B
Fri 06:07:47 AM -33.9450 151.1790 180° South 16 18 21 Level FlightAware ADS-B
Fri 06:08:02 AM -33.9460 151.1790 180° South 16 18 21 Level FlightAware ADS-B
Fri 06:08:27 AM -33.9480 151.1790 180° South 17 20 22 Level FlightAware ADS-B
Fri 06:08:52 AM -33.9500 151.1800 157° South 19 22 23 Level FlightAware ADS-B
Fri 06:09:12 AM -33.9510 151.1810 140° Southeast 16 18 24 Level FlightAware ADS-B
Fri 06:09:37 AM -33.9510 151.1830 90° East 17 20 25 Level FlightAware ADS-B
Fri 06:10:37 AM -33.9520 151.1870 107° East 19 22 27 Level FlightAware ADS-B
Fri 06:10:47 AM -33.9530 151.1870 180° South 19 22 31 Level FlightAware ADS-B
Fri 06:11:17 AM -33.9560 151.1880 165° South 23 26 32 Level FlightAware ADS-B
Fri 06:11:42 AM -33.9590 151.1890 165° South 26 30 34 Level FlightAware ADS-B
Fri 06:11:57 AM -33.9610 151.1890 180° South 25 29 37 Level FlightAware ADS-B
Fri 06:12:27 AM -33.9640 151.1900 165° South 25 29 39 Level FlightAware ADS-B
Fri 06:12:42 AM -33.9650 151.1900 180° South 22 25 43 Level FlightAware ADS-B
Fri 06:12:57 AM -33.9670 151.1910 157° South 19 22 45 Level FlightAware ADS-B
Fri 06:13:37 AM -33.9700 151.1910 180° South 17 20 48 Level FlightAware ADS-B
Fri 06:14:02 AM -33.9710 151.1920 140° Southeast 11 13 57 Level FlightAware ADS-B
Fri 06:14:32 AM -33.9710 151.1930 90° East 65 Level FlightAware ADS-B
Fri 06:16:32 AM -33.9700 151.1930 360° North 40 46 77 Level FlightAware ADS-B
Fri 06:17:07 AM -33.9500 151.1880 348° North 165 190 200 1,320 Climbing FlightAware ADS-B
Fri 06:17:22 AM -33.9390 151.1860 351° North 149 171 1,100 3,000 Climbing FlightAware ADS-B
Fri 06:17:37 AM -33.9290 151.1910 23° Northeast 160 184 1,700 1,650 Climbing FlightAware ADS-B
Fri 06:18:02 AM -33.9110 151.2070 36° Northeast 205 236 2,200 1,350 Climbing FlightAware ADS-B
Fri 06:18:17 AM -33.8990 151.2180 37° Northeast 223 257 2,600 1,867 Climbing FlightAware ADS-B
Fri 06:18:47 AM -33.8750 151.2380 35° Northeast 240 276 3,600 1,800 Climbing FlightAware ADS-B
Fri 06:18:57 AM -33.8650 151.2470 37° Northeast 264 304 3,800 1,500 Climbing FlightAware ADS-B
Fri 06:19:19 AM -33.8355 151.2734 37° Northeast 284 327 4,400 1,000 Climbing Aus ATC (RADAR)
Fri 06:19:27 AM -33.8310 151.2790 37° Northeast 307 353 4,300 333 Descending FlightAware ADS-B
Fri 06:19:37 AM -33.8220 151.2930 52° Northeast 307 353 4,500 1,556 Climbing FlightAware ADS-B
Fri 06:19:54 AM -33.8102 151.3307 52° Northeast 329 379 5,000 800 Climbing Aus ATC (RADAR)
Fri 06:20:07 AM -33.8060 151.3490 52° Northeast 307 353 4,900 -214 Descending FlightAware ADS-B
Fri 06:20:22 AM -33.7950 151.3790 66° East 355 409 4,900 200 Level FlightAware ADS-B
Fri 06:20:37 AM -33.7790 151.3990 46° Northeast 347 399 5,000 1,600 Climbing FlightAware ADS-B
Fri 06:20:52 AM -33.7570 151.4120 26° Northeast 338 389 5,700 3,750 Climbing FlightAware ADS-B
Fri 06:21:17 AM -33.7190 151.4270 18° North 321 369 7,500 4,036 Climbing FlightAware ADS-B
Fri 06:21:47 AM -33.6770 151.4430 18° North 320 368 9,400 2,829 Climbing FlightAware ADS-B
Fri 06:22:27 AM -33.6250 151.4650 19° North 328 377 10,800 2,852 Climbing FlightAware ADS-B
Fri 06:22:48 AM -33.5825 151.4818 19° North 340 391 12,300 3,300 Climbing Aus ATC (RADAR)
Fri 06:23:07 AM -33.5580 151.4910 19° North 344 396 13,000 3,000 Climbing FlightAware ADS-B
Fri 06:23:24 AM -33.5296 151.5029 19° North 346 398 14,100 2,933 Climbing Aus ATC (RADAR)
Fri 06:23:52 AM -33.4910 151.5180 19° North 344 396 15,200 2,667 Climbing FlightAware ADS-B
Fri 06:24:18 AM -33.4439 151.5370 19° North 361 415 16,500 1,886 Climbing Aus ATC (RADAR)
Fri 06:24:27 AM -33.4480 151.5350 19° North 362 417 16,300 2,800 Descending FlightAware ADS-B
Fri 06:24:33 AM -33.4197 151.5468 19° North 366 421 17,200 2,700 Climbing Aus ATC (RADAR)
Fri 06:25:07 AM -33.3820 151.5620 19° North 374 430 18,100 2,647 Climbing FlightAware ADS-B
Fri 06:25:07 AM -33.3634 151.5697 19° North 369 425 18,700 2,280 Climbing Aus ATC (RADAR)
Fri 06:25:57 AM -33.3030 151.5930 18° North 388 447 20,000 2,282 Climbing FlightAware ADS-B
Fri 06:26:18 AM -33.2428 151.6165 18° North 393 452 21,400 1,950 Climbing Aus ATC (RADAR)
Fri 06:26:37 AM -33.2410 151.6170 18° North 396 456 21,300 2,400 Descending FlightAware ADS-B
Fri 06:26:53 AM -33.1812 151.6403 18° North 399 459 22,800 2,620 Climbing Aus ATC (RADAR)
Fri 06:27:48 AM -33.0812 151.6796 18° North 417 480 24,400 1,800 Climbing Aus ATC (RADAR)
Fri 06:28:03 AM -33.0533 151.6908 19° North 421 484 24,900 2,082 Climbing Aus ATC (RADAR)
Fri 06:28:37 AM -32.9877 151.7170 19° North 429 494 26,100 1,820 Climbing Aus ATC (RADAR)
Fri 06:29:32 AM -32.8818 151.7581 18° North 440 506 27,600 1,605 Climbing Aus ATC (RADAR)
Fri 06:30:03 AM -32.8230 151.7812 18° North 444 511 28,400 1,358 Climbing Aus ATC (RADAR)
Fri 06:31:18 AM -32.6720 151.8396 18° North 461 531 30,000 1,267 Climbing Aus ATC (RADAR)
Fri 06:31:33 AM -32.6410 151.8512 18° North 465 535 30,300 1,200 Climbing Aus ATC (RADAR)
Fri 06:32:08 AM -32.5676 151.8801 18° North 475 547 31,000 1,200 Climbing Aus ATC (RADAR)
Fri 06:33:03 AM -32.4503 151.9256 18° North 485 558 32,100 1,133 Climbing Aus ATC (RADAR)
Fri 06:33:38 AM -32.3743 151.9549 18° North 492 566 32,700 1,333 Climbing Aus ATC (RADAR)
Fri 06:34:33 AM -32.2550 152.0014 18° North 492 566 34,100 1,483 Climbing Aus ATC (RADAR)
Fri 06:35:07 AM -32.1799 152.0306 18° North 489 563 34,900 1,046 Climbing Aus ATC (RADAR)
Fri 06:36:22 AM -32.0170 152.0931 18° North 493 567 36,000 960 Climbing Aus ATC (RADAR)
Fri 06:37:12 AM -31.9073 152.1348 18° North 498 573 36,900 891 Climbing Aus ATC (RADAR)
Fri 06:38:03 AM -31.7962 152.1769 18° North 502 578 37,500 1,116 Climbing Aus ATC (RADAR)
Fri 06:38:38 AM -31.7189 152.2061 18° North 500 575 38,500 1,091 Climbing Aus ATC (RADAR)
Fri 06:38:47 AM -31.7100 152.2090 18° North 491 565 38,300 367 Descending FlightAware ADS-B
Fri 06:39:27 AM -31.6210 152.2430 18° North 490 564 38,800 900 Climbing FlightAware ADS-B
Fri 06:39:47 AM -31.5683 152.2635 18° North 487 560 39,200 300 Climbing Aus ATC (RADAR)
Fri 06:40:07 AM -31.5310 152.2770 18° North 494 568 39,000 -150 Descending FlightAware ADS-B
Fri 06:41:07 AM -31.4000 152.3260 18° North 499 574 39,000 141 Level FlightAware ADS-B
Fri 06:41:32 AM -31.3384 152.3501 18° North 496 571 39,200  Climbing Aus ATC (RADAR)
Fri 06:42:02 AM -31.2900 152.3680 18° North 498 573 39,000 -171 Descending FlightAware ADS-B
Fri 06:42:42 AM -31.1970 152.4030 18° North 499 574 39,000 300 Level FlightAware ADS-B
Fri 06:43:02 AM -31.1404 152.4245 18° North 493 567 39,300  Climbing Aus ATC (RADAR)
Fri 06:43:27 AM -31.0940 152.4410 18° North 500 575 39,000 -300 Descending FlightAware ADS-B
Fri 06:44:02 AM -31.0220 152.4680 18° North 502 578 39,000 277 Level FlightAware ADS-B
Fri 06:44:32 AM -30.9414 152.4986 18° North 497 572 39,300  Climbing Aus ATC (RADAR)
Fri 06:44:52 AM -30.9120 152.5080 18° North 502 578 39,000 -225 Descending FlightAware ADS-B
Fri 06:45:52 AM -30.7690 152.5630 18° North 503 579 39,000 277 Level FlightAware ADS-B
Fri 06:45:57 AM -30.7528 152.5693 18° North 499 574 39,300 514 Climbing Aus ATC (RADAR)
Fri 06:46:27 AM -30.6863 152.5941 18° North 499 574 39,300  Level Aus ATC (RADAR)
Fri 06:46:42 AM -30.6526 152.6062 17° North 501 577 39,300 -1,200 Level Aus ATC (RADAR)
Fri 06:46:42 AM -30.6610 152.6030 17° North 507 583 39,000  Descending FlightAware ADS-B
Fri 06:47:16 AM -30.5760 152.6358 17° North 506 582 39,300  Climbing Aus ATC (RADAR)
Fri 06:47:22 AM -30.5690 152.6380 17° North 509 586 39,000  Descending FlightAware ADS-B
Fri 06:48:06 AM -30.4612 152.6754 17° North 506 582 39,300  Climbing Aus ATC (RADAR)
Fri 06:48:07 AM -30.4670 152.6750 17° North 510 587 39,000 -439 Descending FlightAware ADS-B
Fri 06:48:47 AM -30.3830 152.7060 18° North 511 588 39,000  Level FlightAware ADS-B
Fri 06:49:32 AM -30.2840 152.7430 18° North 512 589 39,000 261 Level FlightAware ADS-B
Fri 06:49:56 AM -30.2130 152.7668 18° North 509 586 39,300  Climbing Aus ATC (RADAR)
Fri 06:50:12 AM -30.1880 152.7780 18° North 513 590 39,000 -171 Descending FlightAware ADS-B
Fri 06:50:31 AM -30.1347 152.7967 18° North 504 580 39,200  Climbing Aus ATC (RADAR)
Fri 06:50:52 AM -30.0940 152.8120 18° North 512 589 39,000 -107 Descending FlightAware ADS-B
Fri 06:51:27 AM -30.0100 152.8406 18° North 506 582 39,100 -533 Climbing Aus ATC (RADAR)
Fri 06:51:37 AM -29.9940 152.8480 18° North 510 587 38,600 -1,102 Descending FlightAware ADS-B
Fri 06:52:16 AM -29.8989 152.8820 18° North 496 571 38,200 -1,050 Descending Aus ATC (RADAR)
Fri 06:52:17 AM -29.9030 152.8820 18° North 499 574 37,900 -1,463 Descending FlightAware ADS-B
Fri 06:52:57 AM -29.8150 152.9140 18° North 490 564 37,200 -844 Descending FlightAware ADS-B
Fri 06:53:21 AM -29.7592 152.9347 18° North 480 552 37,000 -615 Descending Aus ATC (RADAR)
Fri 06:53:36 AM -29.7279 152.9473 19° North 476 548 36,800 -1,429 Descending Aus ATC (RADAR)
Fri 06:53:42 AM -29.7200 152.9490 19° North 481 554 36,500 -1,059 Descending FlightAware ADS-B
Fri 06:54:10 AM -29.6543 152.9721 19° North 477 549 36,200 -1,050 Descending Aus ATC (RADAR)
Fri 06:54:22 AM -29.6350 152.9800 19° North 470 541 35,800 -1,024 Descending FlightAware ADS-B
Fri 06:54:51 AM -29.5708 153.0030 19° North 463 533 35,500 -1,067 Descending Aus ATC (RADAR)
Fri 06:55:07 AM -29.5450 153.0120 19° North 461 531 35,000 -1,500 Descending FlightAware ADS-B
Fri 06:55:47 AM -29.4620 153.0420 17° North 449 517 34,100 -1,229 Descending FlightAware ADS-B
Fri 06:56:30 AM -29.3716 153.0734 17° North 435 501 33,300 -1,333 Descending Aus ATC (RADAR)
Fri 06:56:32 AM -29.3750 153.0740 17° North 432 497 33,100 -1,429 Descending FlightAware ADS-B
Fri 06:57:12 AM -29.3000 153.1020 18° North 415 478 32,300 -1,125 Descending FlightAware ADS-B
Fri 06:57:52 AM -29.2300 153.1260 17° North 399 459 31,600 -857 Descending FlightAware ADS-B
Fri 06:58:15 AM -29.1831 153.1424 17° North 394 453 31,400 -1,067 Descending Aus ATC (RADAR)
Fri 06:58:37 AM -29.1500 153.1550 17° North 380 437 30,800 -1,200 Descending FlightAware ADS-B
Fri 06:59:00 AM -29.1083 153.1720 17° North 370 426 30,500 -1,200 Descending Aus ATC (RADAR)
Fri 06:59:32 AM -29.0650 153.1860 17° North 358 412 29,700 -1,075 Descending FlightAware ADS-B
Fri 07:00:07 AM -29.0040 153.2080 18° North 367 422 29,300 -453 Descending FlightAware ADS-B
Fri 07:00:25 AM -28.9718 153.2234 18° North 359 413 29,300 -720 Level Aus ATC (RADAR)
Fri 07:00:57 AM -28.9270 153.2350 18° North 370 426 28,700 -917 Descending FlightAware ADS-B
Fri 07:01:37 AM -28.8570 153.2600 17° North 368 423 28,200 -517 Descending FlightAware ADS-B
Fri 07:01:55 AM -28.8239 153.2743 17° North 363 418 28,200 -364 Level Aus ATC (RADAR)
Fri 07:02:10 AM -28.7997 153.2823 16° North 361 415 28,000 -1,111 Descending Aus ATC (RADAR)
Fri 07:02:22 AM -28.7880 153.2850 16° North 357 411 27,700 -882 Descending FlightAware ADS-B
Fri 07:02:44 AM -28.7446 153.3004 16° North 356 410 27,500 -1,200 Descending Aus ATC (RADAR)
Fri 07:02:57 AM -28.7290 153.3060 16° North 351 404 27,000 -1,294 Descending FlightAware ADS-B
Fri 07:03:35 AM -28.6696 153.3325 16° North 339 390 26,400 -1,200 Descending Aus ATC (RADAR)
Fri 07:03:42 AM -28.6630 153.3290 16° North 335 386 26,100 -1,429 Descending FlightAware ADS-B
Fri 07:04:17 AM -28.6070 153.3490 16° North 336 387 25,400 -947 Descending FlightAware ADS-B
Fri 07:04:20 AM -28.6007 153.3539 16° North 335 386 25,500 -1,320 Climbing Aus ATC (RADAR)
Fri 07:05:07 AM -28.5340 153.3750 17° North 320 368 24,300 -1,286 Descending FlightAware ADS-B
Fri 07:05:30 AM -28.4989 153.3894 17° North 323 372 24,000 -1,050 Descending Aus ATC (RADAR)
Fri 07:05:47 AM -28.4850 153.3920 17° North 322 371 23,600 -1,474 Descending FlightAware ADS-B
Fri 07:06:27 AM -28.4220 153.4140 17° North 317 365 22,600 -1,247 Descending FlightAware ADS-B
Fri 07:07:04 AM -28.3656 153.4350 17° North 313 360 22,000 -1,333 Descending Aus ATC (RADAR)
Fri 07:07:12 AM -28.3570 153.4380 17° North 309 356 21,600 -1,320 Descending FlightAware ADS-B
Fri 07:07:54 AM -28.2977 153.4597 17° North 307 353 20,900 -1,333 Descending Aus ATC (RADAR)
Fri 07:07:57 AM -28.3010 153.4570 17° North 306 352 20,600 -1,200 Descending FlightAware ADS-B
Fri 07:08:34 AM -28.2433 153.4793 17° North 305 351 20,100 -1,200 Descending Aus ATC (RADAR)
Fri 07:08:37 AM -28.2450 153.4770 17° North 301 346 19,800 -1,200 Descending FlightAware ADS-B
Fri 07:09:09 AM -28.1962 153.4955 17° North 304 350 19,400 -1,067 Descending Aus ATC (RADAR)
Fri 07:09:22 AM -28.1850 153.4970 17° North 295 339 19,000 -947 Descending FlightAware ADS-B
Fri 07:09:47 AM -28.1470 153.5000 North 330 380 18,800 -286 Descending FlightAware ADS-B
Fri 07:10:04 AM -28.1154 153.4954 North 336 387 18,800 -375 Level Aus ATC (RADAR)
Fri 07:10:19 AM -28.0915 153.4909 351° North 342 394 18,600 -1,500 Descending Aus ATC (RADAR)
Fri 07:10:32 AM -28.0810 153.4880 351° North 354 407 18,100 -1,200 Descending FlightAware ADS-B
Fri 07:10:54 AM -28.0346 153.4807 351° North 355 409 17,900 -1,200 Descending Aus ATC (RADAR)
Fri 07:11:12 AM -28.0110 153.4760 351° North 350 403 17,300 -1,444 Descending FlightAware ADS-B
Fri 07:11:48 AM -27.9473 153.4652 351° North 346 398 16,600 -1,500 Descending Aus ATC (RADAR)
Fri 07:11:52 AM -27.9470 153.4650 351° North 343 395 16,300 -1,714 Descending FlightAware ADS-B
Fri 07:12:37 AM -27.8770 153.4530 351° North 335 386 15,200 -1,482 Descending FlightAware ADS-B
Fri 07:13:17 AM -27.8170 153.4420 351° North 329 379 14,200 -1,286 Descending FlightAware ADS-B
Fri 07:13:33 AM -27.7869 153.4370 351° North 327 376 14,000 -1,500 Descending Aus ATC (RADAR)
Fri 07:13:57 AM -27.7560 153.4310 351° North 320 368 13,200 -1,467 Descending FlightAware ADS-B
Fri 07:14:18 AM -27.7209 153.4256 351° North 319 367 12,900 -1,333 Descending Aus ATC (RADAR)
Fri 07:14:42 AM -27.6920 153.4200 351° North 313 360 12,200 -1,440 Descending FlightAware ADS-B
Fri 07:15:08 AM -27.6495 153.4124 351° North 310 357 11,700 -1,500 Descending Aus ATC (RADAR)
Fri 07:15:22 AM -27.6340 153.4090 351° North 308 354 11,200 -1,371 Descending FlightAware ADS-B
Fri 07:15:43 AM -27.6002 153.4029 351° North 308 354 10,900 -1,600 Descending Aus ATC (RADAR)
Fri 07:16:07 AM -27.5740 153.3970 351° North 305 351 10,000 -1,837 Descending FlightAware ADS-B
Fri 07:16:32 AM -27.5370 153.3910 352° North 305 351 9,400 -1,304 Descending FlightAware ADS-B
Fri 07:16:53 AM -27.5029 153.3836 352° North 306 352 9,000 -1,600 Descending Aus ATC (RADAR)
Fri 07:17:02 AM -27.4940 153.3830 352° North 303 349 8,600 -1,692 Descending FlightAware ADS-B
Fri 07:17:32 AM -27.4530 153.3750 350° North 299 344 7,900 -1,527 Descending FlightAware ADS-B
Fri 07:17:57 AM -27.4190 153.3680 350° North 298 343 7,200 -1,527 Descending FlightAware ADS-B
Fri 07:18:27 AM -27.3790 153.3610 351° North 296 341 6,500 -1,176 Descending FlightAware ADS-B
Fri 07:18:48 AM -27.3459 153.3545 351° North 296 341 6,200 -1,440 Descending Aus ATC (RADAR)
Fri 07:18:52 AM -27.3440 153.3540 351° North 294 338 5,900 -1,400 Descending FlightAware ADS-B
Fri 07:19:18 AM -27.3056 153.3469 351° North 294 338 5,500 -1,200 Descending Aus ATC (RADAR)
Fri 07:19:22 AM -27.3060 153.3470 351° North 291 335 5,300 -828 Descending FlightAware ADS-B
Fri 07:19:47 AM -27.2720 153.3390 348° North 274 315 5,100 -600 Descending FlightAware ADS-B
Fri 07:20:02 AM -27.2560 153.3290 331° Northwest 264 304 4,900 -800 Descending FlightAware ADS-B
Fri 07:20:32 AM -27.2270 153.3060 325° Northwest 250 288 4,500 -667 Descending FlightAware ADS-B
Fri 07:20:47 AM -27.2150 153.2950 325° Northwest 242 278 4,400 375 Descending FlightAware ADS-B
Fri 07:20:48 AM -27.2105 153.2901 325° Northwest 248 285 4,600 -1,200 Climbing Aus ATC (RADAR)
Fri 07:21:02 AM -27.2080 153.2790 296° West 232 267 4,100 -1,385 Descending FlightAware ADS-B
Fri 07:21:27 AM -27.2100 153.2480 266° West 222 255 3,700 -1,200 Descending FlightAware ADS-B
Fri 07:21:47 AM -27.2160 153.2260 253° West 211 243 3,200 -1,400 Descending FlightAware ADS-B
Fri 07:21:57 AM -27.2240 153.2200 214° Southwest 206 237 3,000 -1,050 Descending FlightAware ADS-B
Fri 07:22:27 AM -27.2490 153.2060 206° Southwest 199 229 2,500 -1,100 Descending FlightAware ADS-B
Fri 07:22:57 AM -27.2740 153.1920 206° Southwest 187 215 1,900 -1,091 Descending FlightAware ADS-B
Fri 07:23:22 AM -27.2930 153.1810 207° Southwest 170 196 1,500 -667 Descending FlightAware ADS-B
Fri 07:23:42 AM -27.3082 153.1721 207° Southwest 168 193 1,400 -720 Descending Aus ATC (RADAR)
Fri 07:23:47 AM -27.3090 153.1720 207° Southwest 159 183 1,200 -1,200 Descending FlightAware ADS-B
Fri 07:24:07 AM -27.3230 153.1640 207° Southwest 150 173 900 -800 Descending FlightAware ADS-B
Fri 07:24:32 AM -27.3370 153.1560 207° Southwest 143 165 600 -750 Descending FlightAware ADS-B
Fri 07:24:47 AM -27.3460 153.1510 206° Southwest 142 163 400 -343 Descending FlightAware ADS-B
Fri 07:25:07 AM -27.3594 153.1431 206° Southwest 142 163 400  Level Aus ATC (RADAR)
Fri 07:25:17 AM -27.3640 153.1410 206° Southwest 140 161 -2,400 Descending FlightAware ADS-B
Fri 07:25:42 AM -27.3780 153.1320 210° Southwest 140 161  Level FlightAware ADS-B
Fri 07:26:12 AM -27.3890 153.1260 206° Southwest 46 53  Level FlightAware ADS-B
Fri 07:26:27 AM -27.3900 153.1240 241° Southwest 31 36  Level FlightAware ADS-B
Fri 07:26:52 AM -27.3910 153.1220 241° Southwest 17 20  Level FlightAware ADS-B
Fri 07:26:57 AM -27.3910 153.1210 270° West 16 18  Level FlightAware ADS-B
Fri 07:27:22 AM -27.3890 153.1220 24° Northeast 13 15  Level FlightAware ADS-B

Login

Don't have an account? Register now (free) for customized features, flight alerts, and more!